Time;durP1;ratioP1;P1;durP2;ratioP2;P2;SDS_P1;SDS_P2;PMS_P1;PMS_P2;Temp;Humidity;BMP_temperature;BMP_pressure;BME280_temperature;BME280_humidity;BME280_pressure;Samples;Min_cycle;Max_cycle;Signal;HPM_P1;HPM_P2
2021/05/20 00:01:28;;;;;;;17.97;15.07;;;10.30;99.90;;;;;;6295043;22;20168;-80
2021/05/20 00:03:54;;;;;;;20.47;16.80;;;10.30;99.90;;;;;;6294499;22;20183;-79
2021/05/20 00:06:21;;;;;;;18.90;16.97;;;10.30;99.90;;;;;;6295155;22;20172;-82
2021/05/20 00:08:47;;;;;;;19.70;15.47;;;10.30;99.90;;;;;;6295125;22;20192;-80
2021/05/20 00:11:14;;;;;;;20.63;16.63;;;10.30;99.90;;;;;;6298551;22;20164;-83
2021/05/20 00:13:40;;;;;;;18.50;14.77;;;10.30;99.90;;;;;;6297496;22;20168;-79
2021/05/20 00:16:07;;;;;;;19.53;17.10;;;10.30;99.90;;;;;;6297983;22;20190;-83
2021/05/20 00:18:33;;;;;;;24.03;19.20;;;10.20;99.90;;;;;;6297810;22;20200;-81
2021/05/20 00:21:00;;;;;;;20.13;18.03;;;10.20;99.90;;;;;;6297269;22;20444;-84
2021/05/20 00:23:26;;;;;;;23.10;19.47;;;10.20;99.90;;;;;;6300508;22;20175;-84
2021/05/20 00:25:52;;;;;;;20.27;18.17;;;10.20;99.90;;;;;;6299258;22;20213;-81
2021/05/20 00:28:18;;;;;;;20.77;16.93;;;10.10;99.90;;;;;;6299165;22;20754;-80
2021/05/20 00:30:45;;;;;;;23.27;18.87;;;10.10;99.90;;;;;;6297213;22;20168;-80
2021/05/20 00:33:12;;;;;;;20.63;17.50;;;10.00;99.90;;;;;;6295847;22;20457;-88
2021/05/20 00:35:38;;;;;;;18.87;15.60;;;10.00;99.90;;;;;;6296354;22;20172;-80
2021/05/20 00:38:08;;;;;;;19.67;17.57;;;10.00;99.90;;;;;;6297734;22;20168;-81
2021/05/20 00:40:34;;;;;;;21.13;17.90;;;10.00;99.90;;;;;;6297673;22;20176;-80
2021/05/20 00:43:00;;;;;;;20.10;16.93;;;10.00;99.90;;;;;;6296046;22;20168;-84
2021/05/20 00:45:27;;;;;;;19.67;16.20;;;10.00;99.90;;;;;;6297603;22;20172;-80
2021/05/20 00:47:53;;;;;;;19.43;16.80;;;10.00;99.90;;;;;;6296965;22;20188;-79
2021/05/20 00:50:20;;;;;;;20.93;18.40;;;10.00;99.90;;;;;;6298640;22;20176;-78
2021/05/20 00:52:47;;;;;;;22.83;19.97;;;10.10;99.90;;;;;;6299393;22;20172;-79
2021/05/20 00:55:16;;;;;;;20.43;18.10;;;10.10;99.90;;;;;;6298389;22;20701;-80
2021/05/20 00:57:44;;;;;;;20.97;17.83;;;10.10;99.90;;;;;;6300489;22;20217;-78
2021/05/20 01:00:13;;;;;;;24.27;19.77;;;10.00;99.90;;;;;;6297844;22;20253;-79
2021/05/20 01:02:40;;;;;;;19.53;17.17;;;10.00;99.90;;;;;;6296912;22;20316;-80
2021/05/20 01:05:08;;;;;;;19.57;17.07;;;10.00;99.90;;;;;;6298561;22;20172;-79
2021/05/20 01:07:35;;;;;;;21.90;18.07;;;10.00;99.90;;;;;;6297642;22;20203;-82
2021/05/20 01:10:02;;;;;;;18.53;16.50;;;10.00;99.90;;;;;;6296585;22;20227;-78
2021/05/20 01:12:28;;;;;;;18.40;16.50;;;9.90;99.90;;;;;;6297529;22;20215;-86
2021/05/20 01:14:54;;;;;;;21.47;17.00;;;9.80;99.90;;;;;;6296449;22;20172;-78
2021/05/20 01:17:21;;;;;;;20.67;17.30;;;9.80;99.90;;;;;;6298704;22;20188;-78
2021/05/20 01:19:47;;;;;;;20.50;18.40;;;9.80;99.90;;;;;;6298846;22;20191;-85
2021/05/20 01:22:15;;;;;;;21.83;18.93;;;9.80;99.90;;;;;;6296927;22;20222;-79
2021/05/20 01:24:42;;;;;;;21.03;18.13;;;9.80;99.90;;;;;;6296461;22;20172;-82
2021/05/20 01:27:10;;;;;;;17.90;16.03;;;9.90;99.90;;;;;;6296209;22;20176;-79
2021/05/20 01:29:38;;;;;;;23.13;19.17;;;9.90;99.90;;;;;;6298670;22;20168;-77
2021/05/20 01:32:05;;;;;;;24.03;18.93;;;9.90;99.90;;;;;;6298828;22;20168;-77
2021/05/20 01:34:33;;;;;;;16.10;14.17;;;9.90;99.90;;;;;;6296583;22;20235;-80
2021/05/20 01:36:59;;;;;;;13.73;12.23;;;9.90;99.90;;;;;;6297357;22;20168;-79
2021/05/20 01:39:27;;;;;;;15.00;12.67;;;10.10;99.90;;;;;;6297765;22;20168;-77
2021/05/20 01:41:53;;;;;;;15.53;13.57;;;10.10;99.90;;;;;;6297633;22;20179;-79
2021/05/20 01:44:21;;;;;;;12.90;11.03;;;10.10;99.90;;;;;;6300538;22;20247;-86
2021/05/20 01:46:47;;;;;;;13.00;11.50;;;10.20;99.90;;;;;;6300251;22;20259;-81
2021/05/20 01:49:14;;;;;;;13.10;10.53;;;10.20;99.90;;;;;;6300176;22;20195;-81
2021/05/20 01:51:41;;;;;;;13.73;11.63;;;10.20;99.90;;;;;;6298417;22;20461;-81
2021/05/20 01:54:08;;;;;;;12.67;11.10;;;10.30;99.90;;;;;;6297459;22;20564;-84
2021/05/20 01:56:36;;;;;;;15.30;10.43;;;10.20;99.90;;;;;;6297803;22;20172;-79
2021/05/20 01:59:03;;;;;;;13.40;10.30;;;10.20;99.90;;;;;;6297796;22;20179;-78
2021/05/20 02:01:30;;;;;;;13.10;11.80;;;10.20;99.90;;;;;;6297844;22;20179;-78
2021/05/20 02:03:56;;;;;;;13.17;11.27;;;10.20;99.90;;;;;;6298456;22;20878;-79
2021/05/20 02:06:23;;;;;;;13.17;11.80;;;10.10;99.90;;;;;;6296709;22;20765;-79
2021/05/20 02:08:49;;;;;;;12.23;11.03;;;10.10;99.90;;;;;;6296144;22;20596;-77
2021/05/20 02:11:15;;;;;;;10.53;9.53;;;10.10;99.90;;;;;;6297637;22;20187;-83
2021/05/20 02:13:42;;;;;;;13.57;10.47;;;10.10;99.90;;;;;;6296197;22;20598;-78
2021/05/20 02:16:09;;;;;;;13.27;10.57;;;10.00;99.90;;;;;;6295837;22;20175;-78
2021/05/20 02:18:37;;;;;;;11.90;10.70;;;10.00;99.90;;;;;;6296285;22;20572;-82
2021/05/20 02:21:04;;;;;;;12.47;9.60;;;10.00;99.90;;;;;;6295583;22;20222;-79
2021/05/20 02:23:31;;;;;;;12.23;9.03;;;10.00;99.90;;;;;;6297273;22;20176;-79
2021/05/20 02:25:58;;;;;;;8.80;7.90;;;10.00;99.90;;;;;;6295719;22;20512;-79
2021/05/20 02:28:24;;;;;;;9.20;8.20;;;9.90;99.90;;;;;;6295241;22;20191;-79
2021/05/20 02:30:52;;;;;;;8.90;8.07;;;9.80;99.90;;;;;;6295417;22;20172;-87
2021/05/20 02:33:18;;;;;;;8.00;7.20;;;9.70;99.90;;;;;;6296076;22;20217;-79
2021/05/20 02:35:44;;;;;;;9.37;8.00;;;9.70;99.90;;;;;;6295552;22;20179;-81
2021/05/20 02:38:11;;;;;;;9.73;8.87;;;9.60;99.90;;;;;;6295711;22;20654;-79
2021/05/20 02:40:37;;;;;;;10.70;9.60;;;9.60;99.90;;;;;;6294814;22;20164;-79
2021/05/20 02:43:04;;;;;;;12.33;10.50;;;9.50;99.90;;;;;;6296180;22;20203;-78
2021/05/20 02:45:31;;;;;;;10.63;9.57;;;9.40;99.90;;;;;;6297981;22;20599;-82
2021/05/20 02:47:58;;;;;;;9.70;8.40;;;9.40;99.90;;;;;;6296542;22;20188;-78
2021/05/20 02:50:25;;;;;;;9.27;8.30;;;9.50;99.90;;;;;;6296264;22;20213;-77
2021/05/20 02:52:52;;;;;;;8.43;7.50;;;9.40;99.90;;;;;;6296341;22;20172;-79
2021/05/20 02:55:20;;;;;;;8.27;7.47;;;9.40;99.90;;;;;;6295511;22;20168;-80
2021/05/20 02:57:48;;;;;;;7.70;6.73;;;9.40;99.90;;;;;;6296210;22;20172;-78
2021/05/20 03:00:18;;;;;;;7.63;6.53;;;9.30;99.90;;;;;;6295638;22;20187;-82
2021/05/20 03:02:44;;;;;;;7.20;6.13;;;9.30;99.90;;;;;;6294907;22;20175;-80
2021/05/20 03:05:12;;;;;;;6.93;5.27;;;9.30;99.90;;;;;;6296504;22;20180;-79
2021/05/20 03:07:38;;;;;;;5.53;5.03;;;9.30;99.90;;;;;;6295701;22;20168;-79
2021/05/20 03:10:07;;;;;;;5.30;4.80;;;9.20;99.90;;;;;;6294298;22;20452;-79
2021/05/20 03:12:34;;;;;;;6.50;4.80;;;9.20;99.90;;;;;;6296719;22;20196;-86
2021/05/20 03:15:00;;;;;;;8.77;6.40;;;9.10;99.90;;;;;;6297771;22;20808;-82
2021/05/20 03:17:27;;;;;;;9.13;7.47;;;9.10;99.90;;;;;;6296229;22;20200;-82
2021/05/20 03:19:53;;;;;;;6.93;6.27;;;9.00;99.90;;;;;;6297548;22;20172;-79
2021/05/20 03:22:21;;;;;;;8.13;7.43;;;9.00;99.90;;;;;;6297525;22;20175;-79
2021/05/20 03:24:49;;;;;;;7.60;6.80;;;8.90;99.90;;;;;;6296473;22;20528;-83
2021/05/20 03:27:16;;;;;;;8.80;7.87;;;8.90;99.90;;;;;;6297044;22;20171;-80
2021/05/20 03:29:43;;;;;;;8.07;7.30;;;8.80;99.90;;;;;;6296603;22;20200;-81
2021/05/20 03:32:09;;;;;;;8.57;7.77;;;8.80;99.90;;;;;;6294779;22;20179;-78
2021/05/20 03:34:35;;;;;;;8.23;6.97;;;8.80;99.90;;;;;;6295369;22;20175;-79
2021/05/20 03:37:03;;;;;;;9.60;8.63;;;8.80;99.90;;;;;;6294406;22;20174;-79
2021/05/20 03:39:30;;;;;;;9.73;8.83;;;8.70;99.90;;;;;;6295596;22;20164;-85
2021/05/20 03:41:56;;;;;;;10.00;9.07;;;8.70;99.90;;;;;;6296802;22;20172;-78
2021/05/20 03:44:22;;;;;;;8.80;7.47;;;8.70;99.90;;;;;;6297218;22;20762;-80
2021/05/20 03:46:50;;;;;;;8.30;7.37;;;8.70;99.90;;;;;;6295430;22;20760;-83
2021/05/20 03:49:16;;;;;;;8.47;7.67;;;8.70;99.90;;;;;;6296941;22;20805;-78
2021/05/20 03:51:42;;;;;;;7.87;7.17;;;8.60;99.90;;;;;;6296815;22;20176;-78
2021/05/20 03:54:09;;;;;;;8.40;7.60;;;8.60;99.90;;;;;;6298098;22;20168;-78
2021/05/20 03:56:36;;;;;;;6.67;6.10;;;8.60;99.90;;;;;;6297237;22;20175;-78
2021/05/20 03:59:03;;;;;;;7.57;6.77;;;8.60;99.90;;;;;;6296928;22;20221;-79
2021/05/20 04:01:30;;;;;;;7.80;7.00;;;8.60;99.90;;;;;;6298337;22;20175;-80
2021/05/20 04:03:56;;;;;;;8.37;7.57;;;8.60;99.90;;;;;;6298291;22;20172;-82
2021/05/20 04:06:22;;;;;;;7.40;6.80;;;8.50;99.90;;;;;;6297748;22;20176;-79
2021/05/20 04:08:48;;;;;;;10.63;9.63;;;8.50;99.90;;;;;;6298510;22;20192;-78
2021/05/20 04:11:15;;;;;;;10.77;9.67;;;8.50;99.90;;;;;;6298373;22;20164;-80
2021/05/20 04:13:43;;;;;;;9.03;8.13;;;8.50;99.90;;;;;;6297343;22;20535;-79
2021/05/20 04:16:12;;;;;;;8.70;7.80;;;8.50;99.90;;;;;;6298271;22;20855;-81
2021/05/20 04:18:38;;;;;;;8.27;6.80;;;8.50;99.90;;;;;;6296987;22;20200;-79
2021/05/20 04:21:05;;;;;;;9.10;8.27;;;8.50;99.90;;;;;;6296371;22;20556;-79
2021/05/20 04:23:32;;;;;;;9.67;8.67;;;8.50;99.90;;;;;;6295871;22;20175;-78
2021/05/20 04:25:58;;;;;;;12.53;10.53;;;8.50;99.90;;;;;;6297969;22;20180;-78
2021/05/20 04:28:25;;;;;;;11.13;10.13;;;8.50;99.90;;;;;;6296801;22;20462;-78
2021/05/20 04:30:52;;;;;;;9.63;8.73;;;8.50;99.90;;;;;;6297901;22;20299;-79
2021/05/20 04:33:20;;;;;;;12.43;9.57;;;8.60;99.90;;;;;;6297049;22;20168;-83
2021/05/20 04:35:47;;;;;;;11.20;9.13;;;8.60;99.90;;;;;;6298063;22;20171;-85
2021/05/20 04:38:13;;;;;;;10.30;9.20;;;8.70;99.90;;;;;;6298695;22;20176;-81
2021/05/20 04:40:40;;;;;;;13.57;8.60;;;8.70;99.90;;;;;;6299040;22;20262;-79
2021/05/20 04:43:06;;;;;;;10.27;7.50;;;8.80;99.90;;;;;;6299366;22;20179;-78
2021/05/20 04:45:34;;;;;;;11.83;7.83;;;8.80;99.90;;;;;;6299051;22;20201;-79
2021/05/20 04:48:01;;;;;;;13.60;8.80;;;8.90;99.90;;;;;;6295917;22;20196;-79
2021/05/20 04:50:27;;;;;;;9.57;8.53;;;9.00;99.90;;;;;;6299488;22;20176;-82
2021/05/20 04:52:53;;;;;;;9.53;7.80;;;9.00;99.90;;;;;;6298189;22;20207;-83
2021/05/20 04:55:20;;;;;;;9.53;7.43;;;9.10;99.90;;;;;;6295843;22;20176;-80
2021/05/20 04:57:46;;;;;;;12.37;7.53;;;9.10;99.90;;;;;;6297025;22;20176;-87
2021/05/20 05:00:14;;;;;;;10.30;7.50;;;9.20;99.90;;;;;;6295727;22;20171;-80
2021/05/20 05:02:40;;;;;;;12.10;8.50;;;9.30;99.90;;;;;;6295520;22;20176;-80
2021/05/20 05:05:09;;;;;;;10.20;8.70;;;9.40;99.90;;;;;;6295785;22;20183;-81
2021/05/20 05:07:36;;;;;;;10.30;8.00;;;9.50;99.90;;;;;;6296745;22;20172;-82
2021/05/20 05:10:03;;;;;;;8.37;7.30;;;9.60;99.90;;;;;;6295719;22;20172;-81
2021/05/20 05:12:30;;;;;;;8.07;7.27;;;9.60;99.90;;;;;;6295824;22;20188;-80
2021/05/20 05:14:57;;;;;;;10.23;8.87;;;9.60;99.90;;;;;;6296825;22;20172;-80
2021/05/20 05:17:24;;;;;;;11.03;8.57;;;9.70;99.90;;;;;;6296561;22;20516;-82
2021/05/20 05:19:50;;;;;;;8.37;7.57;;;9.80;99.90;;;;;;6296804;22;20175;-80
2021/05/20 05:22:18;;;;;;;9.87;8.53;;;9.80;99.90;;;;;;6297265;22;20180;-82
2021/05/20 05:24:44;;;;;;;10.20;7.43;;;9.90;99.90;;;;;;6296663;22;20170;-87
2021/05/20 05:27:11;;;;;;;9.93;8.90;;;10.10;99.90;;;;;;6296931;22;20176;-81
2021/05/20 05:29:37;;;;;;;10.80;8.93;;;10.20;99.90;;;;;;6295473;22;20188;-81
2021/05/20 05:32:05;;;;;;;11.00;8.50;;;10.50;99.90;;;;;;6295862;22;20334;-83
2021/05/20 05:34:32;;;;;;;9.43;8.30;;;10.80;99.90;;;;;;6298910;22;20254;-80
2021/05/20 05:37:00;;;;;;;10.43;8.80;;;11.20;99.90;;;;;;6298327;22;20180;-80
2021/05/20 05:39:27;;;;;;;15.03;11.20;;;11.70;99.90;;;;;;6298317;22;20167;-85
2021/05/20 05:41:53;;;;;;;10.10;9.20;;;12.30;99.90;;;;;;6298287;22;20191;-85
2021/05/20 05:44:20;;;;;;;9.80;8.80;;;13.00;99.90;;;;;;6297916;22;20176;-84
2021/05/20 05:46:46;;;;;;;8.47;6.60;;;13.50;99.90;;;;;;6297326;22;20541;-82
2021/05/20 05:49:15;;;;;;;9.53;5.87;;;13.80;99.90;;;;;;6297852;22;20200;-77
2021/05/20 05:51:45;;;;;;;12.37;5.17;;;14.20;99.90;;;;;;6296651;22;20195;-81
2021/05/20 05:54:12;;;;;;;4.83;3.97;;;14.60;99.90;;;;;;6296226;22;20180;-79
2021/05/20 05:56:39;;;;;;;4.73;3.97;;;15.00;99.90;;;;;;6296193;22;20226;-79
2021/05/20 05:59:05;;;;;;;4.63;4.00;;;15.40;99.90;;;;;;6296290;22;20176;-78
2021/05/20 06:01:32;;;;;;;4.20;3.20;;;15.80;99.90;;;;;;6295580;22;20183;-79
2021/05/20 06:03:59;;;;;;;6.97;3.27;;;16.10;99.90;;;;;;6297447;22;20179;-80
2021/05/20 06:06:26;;;;;;;4.50;3.40;;;16.50;99.90;;;;;;6296112;22;20176;-78
2021/05/20 06:08:53;;;;;;;6.17;3.60;;;16.80;99.90;;;;;;6296189;22;20199;-87
2021/05/20 06:11:19;;;;;;;5.45;2.95;;;17.10;99.90;;;;;;6296961;22;20199;-82
2021/05/20 06:13:46;;;;;;;4.25;2.65;;;17.30;99.90;;;;;;6293904;22;20230;-79
2021/05/20 06:16:12;;;;;;;6.90;3.47;;;17.50;99.90;;;;;;6295950;22;20187;-82
2021/05/20 06:18:39;;;;;;;5.22;3.22;;;17.70;99.90;;;;;;6294326;22;20527;-79
2021/05/20 06:21:05;;;;;;;6.53;4.38;;;17.90;99.90;;;;;;6295208;22;20229;-78
2021/05/20 06:23:31;;;;;;;8.50;4.93;;;18.10;99.90;;;;;;6296356;22;20230;-84
2021/05/20 06:25:58;;;;;;;9.25;4.55;;;18.30;99.90;;;;;;6295105;22;20172;-78
2021/05/20 06:28:25;;;;;;;7.75;4.20;;;18.40;99.90;;;;;;6296795;22;20870;-84
2021/05/20 06:30:52;;;;;;;9.50;5.00;;;18.60;99.90;;;;;;6297165;22;20182;-80
2021/05/20 06:33:20;;;;;;;11.02;5.07;;;18.80;99.90;;;;;;6296795;22;20179;-80
2021/05/20 06:35:47;;;;;;;7.25;4.47;;;18.90;99.90;;;;;;6296472;22;20179;-78
2021/05/20 06:38:13;;;;;;;5.97;3.85;;;19.00;99.90;;;;;;6295949;22;20225;-77
2021/05/20 06:40:40;;;;;;;8.13;4.25;;;19.10;99.90;;;;;;6294678;22;20207;-82
2021/05/20 06:43:06;;;;;;;7.47;4.45;;;19.30;99.90;;;;;;6218963;22;20470;-84
2021/05/20 06:45:33;;;;;;;7.28;3.72;;;19.50;99.90;;;;;;6293160;22;20164;-81
2021/05/20 06:48:00;;;;;;;5.70;2.95;;;19.70;99.90;;;;;;6293478;22;20528;-80
2021/05/20 06:50:27;;;;;;;6.72;3.33;;;19.90;99.90;;;;;;6293892;22;20175;-78
2021/05/20 06:52:54;;;;;;;7.63;3.35;;;20.00;99.90;;;;;;6294141;22;20175;-86
2021/05/20 06:55:21;;;;;;;4.82;2.92;;;20.00;99.90;;;;;;6293034;22;20167;-79
2021/05/20 07:00:34;;;;;;;3.80;2.45;;;20.30;99.90;;;;;;6291013;22;20440;-87
2021/05/20 07:03:04;;;;;;;3.97;1.85;;;20.40;99.90;;;;;;6300021;22;20160;-86
2021/05/20 07:05:30;;;;;;;3.38;1.80;;;20.60;99.90;;;;;;6300622;22;20271;-85
2021/05/20 07:07:57;;;;;;;4.53;2.08;;;20.70;99.90;;;;;;6301163;22;20180;-88
2021/05/20 07:10:24;;;;;;;3.53;2.20;;;20.80;99.90;;;;;;6301454;22;20226;-85
2021/05/20 07:12:50;;;;;;;3.45;1.77;;;20.70;99.90;;;;;;6301517;22;20196;-88
2021/05/20 07:15:17;;;;;;;4.03;1.83;;;20.90;99.90;;;;;;6299666;22;20180;-85
2021/05/20 07:17:43;;;;;;;5.97;1.90;;;21.00;99.90;;;;;;6300771;22;20604;-86
2021/05/20 07:20:11;;;;;;;3.75;1.65;;;21.10;99.90;;;;;;6299216;22;20172;-85
2021/05/20 07:22:37;;;;;;;4.60;1.60;;;21.30;99.90;;;;;;6300296;22;20172;-82
2021/05/20 07:25:05;;;;;;;5.18;1.40;;;21.20;99.90;;;;;;6302905;22;20187;-85
2021/05/20 07:27:32;;;;;;;3.47;1.23;;;21.30;99.90;;;;;;6301010;22;20242;-80
2021/05/20 07:29:58;;;;;;;3.20;1.77;;;21.40;99.90;;;;;;6299858;22;20196;-85
2021/05/20 07:32:25;;;;;;;4.63;2.45;;;21.50;99.90;;;;;;6301957;22;20205;-85
2021/05/20 07:34:52;;;;;;;3.50;1.45;;;21.50;99.90;;;;;;6300799;22;20183;-81
2021/05/20 07:37:19;;;;;;;3.33;1.77;;;21.40;99.90;;;;;;6298322;22;20168;-85
2021/05/20 07:39:46;;;;;;;2.67;1.60;;;21.70;99.90;;;;;;6298717;22;20179;-77
2021/05/20 07:42:14;;;;;;;3.70;1.83;;;21.90;99.90;;;;;;6296658;22;20191;-79
2021/05/20 07:44:40;;;;;;;5.05;1.92;;;22.10;99.90;;;;;;6295675;22;20195;-80
2021/05/20 07:47:07;;;;;;;3.25;1.25;;;22.30;99.90;;;;;;6296147;22;20194;-80
2021/05/20 07:49:36;;;;;;;3.42;1.52;;;22.50;99.90;;;;;;6297266;22;20200;-82
2021/05/20 07:52:04;;;;;;;2.22;1.40;;;22.50;99.90;;;;;;6295687;22;20178;-80
2021/05/20 07:54:32;;;;;;;2.50;1.25;;;22.60;99.90;;;;;;6295905;22;20900;-78
2021/05/20 07:56:58;;;;;;;3.17;1.80;;;22.90;99.90;;;;;;6296387;22;20194;-79
2021/05/20 07:59:24;;;;;;;2.50;1.40;;;23.00;99.90;;;;;;6294976;22;20172;-79
2021/05/20 08:01:55;;;;;;;2.90;1.40;;;23.10;99.90;;;;;;6296305;22;20179;-79
2021/05/20 08:04:24;;;;;;;2.78;1.63;;;23.00;99.90;;;;;;6294846;22;20533;-78
2021/05/20 08:06:54;;;;;;;3.08;2.30;;;23.10;99.90;;;;;;6296125;22;20175;-80
2021/05/20 08:09:26;;;;;;;2.15;1.27;;;23.30;99.90;;;;;;6296412;22;20280;-80
2021/05/20 08:11:53;;;;;;;2.65;1.05;;;23.40;99.90;;;;;;6294718;22;20191;-77
2021/05/20 08:14:19;;;;;;;1.13;0.80;;;23.30;99.90;;;;;;6295586;22;20540;-78
2021/05/20 08:16:45;;;;;;;1.65;1.00;;;23.20;99.90;;;;;;6295648;22;21028;-78
2021/05/20 08:19:12;;;;;;;3.80;1.25;;;23.30;99.90;;;;;;6295077;22;20168;-77
2021/05/20 08:21:38;;;;;;;3.60;1.20;;;23.50;99.90;;;;;;6295755;22;20172;-78
2021/05/20 08:24:06;;;;;;;2.88;0.98;;;23.80;99.90;;;;;;6294857;22;20452;-78
2021/05/20 08:26:33;;;;;;;1.55;1.08;;;23.70;99.90;;;;;;6294872;22;20459;-77
2021/05/20 08:29:00;;;;;;;2.95;1.27;;;23.60;99.90;;;;;;6295545;22;20184;-77
2021/05/20 08:31:28;;;;;;;3.03;1.13;;;23.80;99.90;;;;;;6295700;22;20168;-77
2021/05/20 08:33:55;;;;;;;1.80;1.00;;;23.90;99.90;;;;;;6294836;22;20221;-79
2021/05/20 08:36:21;;;;;;;1.60;0.98;;;24.00;99.90;;;;;;6295354;22;20176;-76
2021/05/20 08:38:48;;;;;;;2.22;1.00;;;24.10;99.90;;;;;;6295286;22;20179;-78
2021/05/20 08:41:18;;;;;;;3.30;0.93;;;24.30;99.90;;;;;;6294944;22;20204;-76
2021/05/20 08:43:44;;;;;;;3.97;0.90;;;24.30;99.90;;;;;;6296785;22;20449;-79
2021/05/20 08:46:12;;;;;;;1.05;0.60;;;24.40;99.90;;;;;;6295468;22;20179;-77
2021/05/20 08:48:39;;;;;;;2.10;1.20;;;24.50;99.90;;;;;;6290849;22;20199;-76
2021/05/20 08:51:06;;;;;;;2.97;1.35;;;24.40;99.90;;;;;;6295879;22;20175;-76
2021/05/20 08:53:32;;;;;;;2.28;1.45;;;24.10;99.90;;;;;;6291993;22;20436;-78
2021/05/20 08:55:58;;;;;;;3.25;1.60;;;24.00;99.90;;;;;;6293705;22;20165;-78
2021/05/20 08:58:25;;;;;;;2.95;1.60;;;23.90;99.90;;;;;;6293348;22;20632;-82
2021/05/20 09:00:53;;;;;;;1.40;1.10;;;24.00;99.90;;;;;;6293226;22;20925;-77
2021/05/20 09:03:21;;;;;;;3.47;1.20;;;24.00;99.90;;;;;;6293298;22;20518;-80
2021/05/20 09:05:49;;;;;;;2.20;1.10;;;24.00;99.90;;;;;;6294277;22;20207;-77
2021/05/20 09:08:18;;;;;;;2.53;1.48;;;24.10;99.90;;;;;;6294685;22;20176;-77
2021/05/20 09:10:47;;;;;;;3.15;1.95;;;24.20;99.90;;;;;;6293444;22;20176;-77
2021/05/20 09:13:16;;;;;;;5.28;1.80;;;24.10;99.90;;;;;;6294055;22;20456;-78
2021/05/20 09:15:44;;;;;;;1.85;1.33;;;24.10;99.90;;;;;;6293660;22;20845;-76
2021/05/20 09:18:15;;;;;;;2.70;1.42;;;24.20;99.90;;;;;;6292815;22;20176;-81
2021/05/20 09:20:45;;;;;;;2.25;1.45;;;24.10;99.90;;;;;;6294906;22;20168;-77
2021/05/20 09:23:12;;;;;;;2.30;1.60;;;24.10;99.90;;;;;;6292377;22;20171;-78
2021/05/20 09:25:40;;;;;;;4.82;1.60;;;24.10;99.90;;;;;;6294059;22;20218;-77
2021/05/20 09:28:08;;;;;;;3.15;1.70;;;23.90;99.90;;;;;;6295295;22;20191;-85
2021/05/20 09:30:36;;;;;;;4.45;1.88;;;23.90;99.90;;;;;;6294990;22;20881;-79
2021/05/20 09:33:06;;;;;;;3.08;1.50;;;24.10;99.90;;;;;;6296547;22;20202;-80
2021/05/20 09:35:35;;;;;;;1.98;1.27;;;24.10;99.90;;;;;;6295720;22;20168;-79
2021/05/20 09:38:04;;;;;;;1.90;1.38;;;24.30;99.90;;;;;;6296952;22;20176;-78
2021/05/20 09:40:34;;;;;;;3.63;1.80;;;24.10;99.90;;;;;;6296971;22;20203;-77
2021/05/20 09:43:00;;;;;;;2.90;2.00;;;24.00;99.90;;;;;;6296082;22;20176;-78
2021/05/20 09:45:28;;;;;;;2.85;1.83;;;24.10;99.90;;;;;;6297516;22;20172;-81
2021/05/20 09:48:04;;;;;;;2.88;1.77;;;23.90;99.90;;;;;;6294716;22;20445;-78
2021/05/20 09:50:36;;;;;;;2.88;1.90;;;23.90;99.90;;;;;;6295042;22;20164;-78
2021/05/20 09:53:08;;;;;;;3.13;2.08;;;23.90;99.90;;;;;;6295623;22;20218;-78
2021/05/20 09:55:34;;;;;;;3.33;1.75;;;23.80;99.90;;;;;;6295157;22;20295;-77
2021/05/20 09:58:08;;;;;;;4.30;2.55;;;23.90;99.90;;;;;;6293529;22;20608;-77
2021/05/20 10:00:36;;;;;;;4.30;2.95;;;24.00;99.90;;;;;;6295193;22;20202;-77
2021/05/20 10:03:05;;;;;;;4.57;3.00;;;24.10;99.90;;;;;;6295315;22;20199;-80
2021/05/20 10:05:33;;;;;;;4.28;2.63;;;24.10;99.90;;;;;;6297529;22;20267;-79
2021/05/20 10:08:01;;;;;;;2.88;2.33;;;24.20;99.90;;;;;;6297756;22;20172;-77
2021/05/20 10:10:28;;;;;;;4.95;3.17;;;24.20;99.90;;;;;;6296913;22;20216;-78
2021/05/20 10:12:55;;;;;;;5.55;3.85;;;24.00;99.90;;;;;;6296876;22;20258;-82
2021/05/20 10:15:22;;;;;;;6.57;3.90;;;23.70;99.90;;;;;;6296644;22;20172;-85
2021/05/20 10:17:50;;;;;;;7.82;4.45;;;23.70;99.90;;;;;;6296825;22;20560;-86
2021/05/20 10:20:19;;;;;;;10.25;4.22;;;23.60;99.90;;;;;;6297165;22;20615;-80
2021/05/20 10:22:45;;;;;;;4.00;3.60;;;23.70;99.90;;;;;;6295902;22;20176;-84
2021/05/20 10:25:13;;;;;;;5.53;4.15;;;23.80;99.90;;;;;;6299436;22;20182;-81
2021/05/20 10:27:41;;;;;;;5.55;4.43;;;24.00;99.90;;;;;;6299839;22;20176;-85
2021/05/20 10:30:11;;;;;;;3.50;3.20;;;23.90;99.90;;;;;;6299636;22;20596;-85
2021/05/20 10:32:38;;;;;;;5.07;3.53;;;24.10;99.90;;;;;;6297578;22;20708;-78
2021/05/20 10:35:08;;;;;;;5.82;3.92;;;24.20;99.90;;;;;;6295326;22;20647;-79
2021/05/20 10:37:38;;;;;;;5.50;3.75;;;24.20;99.90;;;;;;6294639;22;20379;-80
2021/05/20 10:40:26;;;;;;;3.30;2.75;;;24.30;99.90;;;;;;6296661;22;20172;-80
2021/05/20 10:43:05;;;;;;;4.65;2.38;;;24.20;99.90;;;;;;6295245;22;20238;-76
2021/05/20 10:45:31;;;;;;;4.03;3.08;;;24.00;99.90;;;;;;6294724;22;20210;-78
2021/05/20 10:48:17;;;;;;;4.25;3.58;;;23.90;99.90;;;;;;6294701;22;20168;-79
2021/05/20 10:51:04;;;;;;;4.65;3.70;;;24.00;99.90;;;;;;6294661;22;20198;-79
2021/05/20 10:53:50;;;;;;;5.22;4.13;;;23.80;99.90;;;;;;6294824;22;20195;-77
2021/05/20 10:56:54;;;;;;;4.95;3.50;;;23.40;99.90;;;;;;6296080;22;20183;-79
2021/05/20 10:59:44;;;;;;;4.53;3.67;;;23.30;99.90;;;;;;6294477;22;20269;-78
2021/05/20 11:02:51;;;;;;;6.18;3.55;;;23.50;99.90;;;;;;6292830;22;20183;-78
2021/05/20 11:05:57;;;;;;;3.28;2.72;;;23.70;99.90;;;;;;6296431;22;20190;-78
2021/05/20 11:08:57;;;;;;;3.65;3.25;;;23.70;99.90;;;;;;6294170;22;20187;-78
2021/05/20 11:11:48;;;;;;;5.50;3.28;;;23.70;99.90;;;;;;6294413;22;20196;-78
2021/05/20 11:14:38;;;;;;;3.35;2.80;;;23.60;99.90;;;;;;6293077;22;20168;-77
2021/05/20 11:17:40;;;;;;;6.72;3.75;;;23.50;99.90;;;;;;6293809;22;20164;-78
2021/05/20 11:20:46;;;;;;;5.53;3.20;;;23.40;99.90;;;;;;6293584;22;20167;-80
2021/05/20 11:23:23;;;;;;;4.18;3.10;;;23.30;99.90;;;;;;6293902;22;20167;-82
2021/05/20 11:26:00;;;;;;;5.78;3.30;;;23.10;99.90;;;;;;6293717;22;20191;-79
2021/05/20 11:28:27;;;;;;;6.80;3.95;;;22.80;99.90;;;;;;6292295;22;20866;-85
2021/05/20 11:30:57;;;;;;;4.30;3.40;;;22.80;99.90;;;;;;6293609;22;20772;-79
2021/05/20 11:33:25;;;;;;;5.00;3.33;;;22.70;99.90;;;;;;6293294;22;20239;-78
2021/05/20 11:36:09;;;;;;;6.30;3.28;;;22.60;99.90;;;;;;6292927;22;20246;-82
2021/05/20 11:38:35;;;;;;;6.03;3.50;;;22.70;99.90;;;;;;6294160;22;20614;-79
2021/05/20 11:41:16;;;;;;;4.38;3.50;;;22.70;99.90;;;;;;6293525;22;20203;-78
2021/05/20 11:43:43;;;;;;;6.05;4.00;;;22.80;99.90;;;;;;6291922;22;20260;-79
2021/05/20 11:46:23;;;;;;;7.25;3.50;;;22.80;99.90;;;;;;6293887;22;20572;-79
2021/05/20 11:49:01;;;;;;;4.30;3.38;;;22.70;99.90;;;;;;6294672;22;20196;-78
2021/05/20 11:51:41;;;;;;;5.68;3.38;;;22.70;99.90;;;;;;6294066;22;20168;-77
2021/05/20 11:54:09;;;;;;;6.68;4.10;;;22.60;99.90;;;;;;6295064;22;20170;-80
2021/05/20 11:56:37;;;;;;;5.80;4.50;;;22.40;99.90;;;;;;6295510;22;20178;-79
2021/05/20 11:59:04;;;;;;;4.47;4.07;;;22.20;99.90;;;;;;6295358;22;20168;-77
2021/05/20 12:01:30;;;;;;;4.57;3.60;;;22.00;99.90;;;;;;6294245;22;20405;-79
2021/05/20 12:04:02;;;;;;;6.25;3.47;;;21.90;99.90;;;;;;6293648;22;20176;-78
2021/05/20 12:06:28;;;;;;;5.20;4.30;;;21.90;99.90;;;;;;6293166;22;20229;-78
2021/05/20 12:09:19;;;;;;;6.28;4.60;;;21.80;99.90;;;;;;6293906;22;20205;-77
2021/05/20 12:11:46;;;;;;;4.50;4.05;;;21.80;99.90;;;;;;6271992;22;20196;-80
2021/05/20 12:14:27;;;;;;;5.70;4.45;;;21.70;99.90;;;;;;6296587;22;20202;-81
2021/05/20 12:17:05;;;;;;;6.05;4.90;;;21.70;99.90;;;;;;6296708;22;20164;-78
2021/05/20 12:19:34;;;;;;;6.38;5.00;;;21.70;99.90;;;;;;6295481;22;20164;-83
2021/05/20 12:22:03;;;;;;;5.82;5.13;;;21.60;99.90;;;;;;6296159;22;20223;-83
2021/05/20 12:24:31;;;;;;;6.28;5.65;;;21.50;99.90;;;;;;6294560;22;20806;-77
2021/05/20 12:27:05;;;;;;;6.03;5.45;;;21.50;99.90;;;;;;6296316;22;20183;-77
2021/05/20 12:29:31;;;;;;;6.68;5.97;;;21.50;99.90;;;;;;6295901;22;20245;-76
2021/05/20 12:31:58;;;;;;;6.88;5.05;;;21.40;99.90;;;;;;6296027;22;20176;-77
2021/05/20 12:34:24;;;;;;;7.13;5.53;;;21.50;99.90;;;;;;6296570;22;20221;-75
2021/05/20 12:36:51;;;;;;;8.27;5.93;;;21.50;99.90;;;;;;6296295;22;20184;-76
2021/05/20 12:39:17;;;;;;;6.63;5.93;;;21.30;99.90;;;;;;6296381;22;20168;-79
2021/05/20 12:41:43;;;;;;;7.22;5.45;;;21.10;99.90;;;;;;6292527;22;20211;-77
2021/05/20 12:44:14;;;;;;;5.75;4.80;;;21.00;99.90;;;;;;6295928;22;20176;-79
2021/05/20 12:46:40;;;;;;;5.30;4.80;;;20.90;99.90;;;;;;6295717;22;20183;-76
2021/05/20 12:49:07;;;;;;;6.53;5.07;;;20.80;99.90;;;;;;6296047;22;20195;-77
2021/05/20 12:51:34;;;;;;;5.93;4.75;;;20.60;99.90;;;;;;6295186;22;20221;-80
2021/05/20 12:54:04;;;;;;;6.32;4.78;;;20.60;99.90;;;;;;6295259;22;20623;-77
2021/05/20 12:56:32;;;;;;;6.15;4.93;;;20.60;99.90;;;;;;6295226;22;20251;-77